sensor_id;sensor_type;location;lat;lon;timestamp;pressure;altitude;pressure_sealevel;temperature;humidity
38227;BME280;24026;49.446;8.576;2023-05-21T00:01:35;100201.81;;;19.69;51.72
38227;BME280;24026;49.446;8.576;2023-05-21T00:03:55;100202.44;;;19.66;52.06
38227;BME280;24026;49.446;8.576;2023-05-21T00:06:16;100203.22;;;19.66;51.89
38227;BME280;24026;49.446;8.576;2023-05-21T00:08:36;100202.75;;;19.64;51.85
38227;BME280;24026;49.446;8.576;2023-05-21T00:10:57;100200.84;;;19.65;51.91
38227;BME280;24026;49.446;8.576;2023-05-21T00:13:17;100195.25;;;19.61;52.10
38227;BME280;24026;49.446;8.576;2023-05-21T00:15:37;100195.47;;;19.65;52.04
38227;BME280;24026;49.446;8.576;2023-05-21T00:17:58;100197.47;;;19.59;52.05
38227;BME280;24026;49.446;8.576;2023-05-21T00:20:18;100195.06;;;19.57;52.51
38227;BME280;24026;49.446;8.576;2023-05-21T00:22:39;100195.06;;;19.57;52.05
38227;BME280;24026;49.446;8.576;2023-05-21T00:25:01;100186.50;;;19.55;52.58
38227;BME280;24026;49.446;8.576;2023-05-21T00:27:22;100186.50;;;19.55;52.09
38227;BME280;24026;49.446;8.576;2023-05-21T00:29:42;100188.41;;;19.55;52.23
38227;BME280;24026;49.446;8.576;2023-05-21T00:32:03;100185.22;;;19.53;52.63
38227;BME280;24026;49.446;8.576;2023-05-21T00:34:24;100175.25;;;19.53;52.48
38227;BME280;24026;49.446;8.576;2023-05-21T00:36:45;100179.81;;;19.53;52.63
38227;BME280;24026;49.446;8.576;2023-05-21T00:39:06;100175.84;;;19.50;52.73
38227;BME280;24026;49.446;8.576;2023-05-21T00:41:26;100178.72;;;19.54;52.37
38227;BME280;24026;49.446;8.576;2023-05-21T00:43:49;100177.75;;;19.50;52.29
38227;BME280;24026;49.446;8.576;2023-05-21T00:46:15;100175.19;;;19.44;52.79
38227;BME280;24026;49.446;8.576;2023-05-21T00:48:37;100167.59;;;19.47;52.86
38227;BME280;24026;49.446;8.576;2023-05-21T00:50:58;100178.66;;;19.45;52.67
38227;BME280;24026;49.446;8.576;2023-05-21T00:53:19;100175.69;;;19.47;52.68
38227;BME280;24026;49.446;8.576;2023-05-21T00:55:40;100167.09;;;19.44;52.65
38227;BME280;24026;49.446;8.576;2023-05-21T00:58:00;100162.50;;;19.45;52.79
38227;BME280;24026;49.446;8.576;2023-05-21T01:00:21;100168.19;;;19.43;52.89
38227;BME280;24026;49.446;8.576;2023-05-21T01:02:43;100159.94;;;19.40;53.08
38227;BME280;24026;49.446;8.576;2023-05-21T01:05:04;100163.13;;;19.42;53.12
38227;BME280;24026;49.446;8.576;2023-05-21T01:07:25;100160.41;;;19.42;52.74
38227;BME280;24026;49.446;8.576;2023-05-21T01:09:46;100161.81;;;19.39;52.78
38227;BME280;24026;49.446;8.576;2023-05-21T01:12:07;100161.81;;;19.39;53.17
38227;BME280;24026;49.446;8.576;2023-05-21T01:14:28;100163.91;;;19.42;52.73
38227;BME280;24026;49.446;8.576;2023-05-21T01:16:50;100160.25;;;19.38;53.35
38227;BME280;24026;49.446;8.576;2023-05-21T01:19:22;100154.06;;;19.38;53.32
38227;BME280;24026;49.446;8.576;2023-05-21T01:21:45;100151.97;;;19.35;53.12
38227;BME280;24026;49.446;8.576;2023-05-21T01:24:06;100154.38;;;19.36;53.18
38227;BME280;24026;49.446;8.576;2023-05-21T01:26:26;100149.59;;;19.33;53.05
38227;BME280;24026;49.446;8.576;2023-05-21T01:28:47;100144.38;;;19.37;53.32
38227;BME280;24026;49.446;8.576;2023-05-21T01:31:28;100144.00;;;19.30;53.03
38227;BME280;24026;49.446;8.576;2023-05-21T01:33:50;100147.00;;;19.28;53.18
38227;BME280;24026;49.446;8.576;2023-05-21T01:36:21;100133.53;;;19.28;53.09
38227;BME280;24026;49.446;8.576;2023-05-21T01:38:59;100140.31;;;19.25;53.28
38227;BME280;24026;49.446;8.576;2023-05-21T01:41:21;100137.56;;;19.17;53.79
38227;BME280;24026;49.446;8.576;2023-05-21T01:43:43;100136.53;;;19.27;53.33
38227;BME280;24026;49.446;8.576;2023-05-21T01:46:06;100128.34;;;19.32;53.30
38227;BME280;24026;49.446;8.576;2023-05-21T01:48:29;100134.81;;;19.31;53.39
38227;BME280;24026;49.446;8.576;2023-05-21T01:50:50;100127.63;;;19.26;53.49
38227;BME280;24026;49.446;8.576;2023-05-21T01:53:12;100131.63;;;19.29;53.37
38227;BME280;24026;49.446;8.576;2023-05-21T01:55:32;100126.44;;;19.32;53.21
38227;BME280;24026;49.446;8.576;2023-05-21T01:57:54;100125.47;;;19.28;53.40
38227;BME280;24026;49.446;8.576;2023-05-21T02:00:14;100133.53;;;19.28;53.32
38227;BME280;24026;49.446;8.576;2023-05-21T02:02:35;100131.44;;;19.25;53.57
38227;BME280;24026;49.446;8.576;2023-05-21T02:04:55;100124.66;;;19.28;53.36
38227;BME280;24026;49.446;8.576;2023-05-21T02:07:16;100122.75;;;19.28;53.40
38227;BME280;24026;49.446;8.576;2023-05-21T02:09:37;100126.84;;;19.25;53.63
38227;BME280;24026;49.446;8.576;2023-05-21T02:11:57;100113.38;;;19.25;53.68
38227;BME280;24026;49.446;8.576;2023-05-21T02:14:18;100112.59;;;19.25;53.68
38227;BME280;24026;49.446;8.576;2023-05-21T02:16:39;100113.19;;;19.22;53.42
38227;BME280;24026;49.446;8.576;2023-05-21T02:19:01;100121.78;;;19.24;53.69
38227;BME280;24026;49.446;8.576;2023-05-21T02:21:23;100121.16;;;19.27;53.69
38227;BME280;24026;49.446;8.576;2023-05-21T02:23:44;100116.56;;;19.28;53.47
38227;BME280;24026;49.446;8.576;2023-05-21T02:26:04;100121.47;;;19.25;53.74
38227;BME280;24026;49.446;8.576;2023-05-21T02:28:24;100117.69;;;19.27;53.36
38227;BME280;24026;49.446;8.576;2023-05-21T02:30:45;100119.97;;;19.19;53.86
38227;BME280;24026;49.446;8.576;2023-05-21T02:33:05;100112.91;;;19.23;53.69
38227;BME280;24026;49.446;8.576;2023-05-21T02:35:28;100116.81;;;19.17;53.58
38227;BME280;24026;49.446;8.576;2023-05-21T02:37:48;100115.41;;;19.20;53.55
38227;BME280;24026;49.446;8.576;2023-05-21T02:40:09;100109.41;;;19.23;53.56
38227;BME280;24026;49.446;8.576;2023-05-21T02:42:30;100116.06;;;19.25;53.59
38227;BME280;24026;49.446;8.576;2023-05-21T02:44:51;100107.50;;;19.23;53.44
38227;BME280;24026;49.446;8.576;2023-05-21T02:47:12;100115.59;;;19.23;53.25
38227;BME280;24026;49.446;8.576;2023-05-21T02:49:32;100116.38;;;19.24;53.39
38227;BME280;24026;49.446;8.576;2023-05-21T02:51:52;100107.81;;;19.22;53.55
38227;BME280;24026;49.446;8.576;2023-05-21T02:54:13;100105.91;;;19.22;53.66
38227;BME280;24026;49.446;8.576;2023-05-21T02:56:34;100108.91;;;19.21;53.54
38227;BME280;24026;49.446;8.576;2023-05-21T02:58:54;100107.22;;;19.25;53.62
38227;BME280;24026;49.446;8.576;2023-05-21T03:01:14;100111.00;;;19.24;53.51
38227;BME280;24026;49.446;8.576;2023-05-21T03:03:35;100105.13;;;19.22;53.73
38227;BME280;24026;49.446;8.576;2023-05-21T03:05:56;100104.34;;;19.21;53.62
38227;BME280;24026;49.446;8.576;2023-05-21T03:08:17;100101.66;;;19.21;53.69
38227;BME280;24026;49.446;8.576;2023-05-21T03:10:38;100106.22;;;19.21;53.89
38227;BME280;24026;49.446;8.576;2023-05-21T03:12:58;100110.63;;;19.17;53.80
38227;BME280;24026;49.446;8.576;2023-05-21T03:15:18;100106.50;;;19.19;54.02
38227;BME280;24026;49.446;8.576;2023-05-21T03:17:42;100098.25;;;19.16;53.69
38227;BME280;24026;49.446;8.576;2023-05-21T03:20:03;100101.47;;;19.18;53.78
38227;BME280;24026;49.446;8.576;2023-05-21T03:22:24;100098.13;;;19.21;53.86
38227;BME280;24026;49.446;8.576;2023-05-21T03:24:44;100105.72;;;19.19;53.79
38227;BME280;24026;49.446;8.576;2023-05-21T03:27:05;100106.50;;;19.19;53.80
38227;BME280;24026;49.446;8.576;2023-05-21T03:29:26;100100.78;;;19.12;53.87
38227;BME280;24026;49.446;8.576;2023-05-21T03:31:47;100110.44;;;19.13;53.83
38227;BME280;24026;49.446;8.576;2023-05-21T03:34:07;100109.34;;;19.14;54.18
38227;BME280;24026;49.446;8.576;2023-05-21T03:36:28;100110.44;;;19.13;54.33
38227;BME280;24026;49.446;8.576;2023-05-21T03:38:48;100113.44;;;19.12;54.06
38227;BME280;24026;49.446;8.576;2023-05-21T03:41:09;100118.34;;;19.10;54.30
38227;BME280;24026;49.446;8.576;2023-05-21T03:43:30;100117.72;;;19.13;54.28
38227;BME280;24026;49.446;8.576;2023-05-21T03:45:50;100107.88;;;19.08;54.18
38227;BME280;24026;49.446;8.576;2023-05-21T03:48:10;100105.66;;;19.10;54.46
38227;BME280;24026;49.446;8.576;2023-05-21T03:50:31;100103.94;;;19.14;54.01
38227;BME280;24026;49.446;8.576;2023-05-21T03:52:51;100107.69;;;19.04;54.28
38227;BME280;24026;49.446;8.576;2023-05-21T03:55:12;100111.06;;;19.10;54.28
38227;BME280;24026;49.446;8.576;2023-05-21T03:57:32;100108.84;;;19.12;54.07
38227;BME280;24026;49.446;8.576;2023-05-21T03:59:52;100102.19;;;19.10;54.07
38227;BME280;24026;49.446;8.576;2023-05-21T04:02:13;100097.91;;;19.09;54.26
38227;BME280;24026;49.446;8.576;2023-05-21T04:04:33;100103.88;;;19.05;54.23
38227;BME280;24026;49.446;8.576;2023-05-21T04:06:54;100102.63;;;19.03;54.26
38227;BME280;24026;49.446;8.576;2023-05-21T04:09:14;100109.38;;;19.00;54.34
38227;BME280;24026;49.446;8.576;2023-05-21T04:11:35;100107.19;;;19.02;54.34
38227;BME280;24026;49.446;8.576;2023-05-21T04:13:55;100105.91;;;19.00;54.84
38227;BME280;24026;49.446;8.576;2023-05-21T04:16:16;100113.09;;;19.04;54.74
38227;BME280;24026;49.446;8.576;2023-05-21T04:18:38;100105.19;;;19.08;54.37
38227;BME280;24026;49.446;8.576;2023-05-21T04:20:58;100104.31;;;18.99;54.82
38227;BME280;24026;49.446;8.576;2023-05-21T04:23:19;100113.69;;;19.01;54.74
38227;BME280;24026;49.446;8.576;2023-05-21T04:25:42;100113.00;;;18.96;54.67
38227;BME280;24026;49.446;8.576;2023-05-21T04:28:03;100116.81;;;18.95;54.95
38227;BME280;24026;49.446;8.576;2023-05-21T04:30:23;100126.75;;;18.94;54.52
38227;BME280;24026;49.446;8.576;2023-05-21T04:32:43;100118.88;;;18.98;54.61
38227;BME280;24026;49.446;8.576;2023-05-21T04:35:07;100113.00;;;18.96;54.67
38227;BME280;24026;49.446;8.576;2023-05-21T04:37:27;100115.69;;;18.96;54.93
38227;BME280;24026;49.446;8.576;2023-05-21T04:39:49;100115.38;;;18.97;54.81
38227;BME280;24026;49.446;8.576;2023-05-21T04:42:09;100119.19;;;18.96;54.59
38227;BME280;24026;49.446;8.576;2023-05-21T04:44:30;100124.88;;;18.95;54.63
38227;BME280;24026;49.446;8.576;2023-05-21T04:46:50;100118.06;;;18.97;54.88
38227;BME280;24026;49.446;8.576;2023-05-21T04:49:11;100126.97;;;18.98;54.73
38227;BME280;24026;49.446;8.576;2023-05-21T04:51:31;100126.63;;;18.99;54.58
38227;BME280;24026;49.446;8.576;2023-05-21T04:53:52;100135.53;;;19.00;54.63
38227;BME280;24026;49.446;8.576;2023-05-21T04:56:13;100140.09;;;18.99;54.78
38227;BME280;24026;49.446;8.576;2023-05-21T04:58:33;100137.22;;;18.96;54.86
38227;BME280;24026;49.446;8.576;2023-05-21T05:00:54;100133.13;;;18.98;54.61
38227;BME280;24026;49.446;8.576;2023-05-21T05:03:14;100128.84;;;18.97;54.78
38227;BME280;24026;49.446;8.576;2023-05-21T05:05:35;100131.66;;;18.92;55.13
38227;BME280;24026;49.446;8.576;2023-05-21T05:07:55;100134.66;;;18.91;55.06
38227;BME280;24026;49.446;8.576;2023-05-21T05:10:17;100130.88;;;18.92;55.14
38227;BME280;24026;49.446;8.576;2023-05-21T05:12:37;100129.75;;;18.93;54.93
38227;BME280;24026;49.446;8.576;2023-05-21T05:14:58;100133.25;;;18.93;55.06
38227;BME280;24026;49.446;8.576;2023-05-21T05:17:18;100132.13;;;18.94;54.94
38227;BME280;24026;49.446;8.576;2023-05-21T05:19:38;100133.75;;;18.95;54.88
38227;BME280;24026;49.446;8.576;2023-05-21T05:21:59;100130.56;;;18.93;54.74
38227;BME280;24026;49.446;8.576;2023-05-21T05:24:19;100131.84;;;18.96;55.17
38227;BME280;24026;49.446;8.576;2023-05-21T05:26:40;100127.88;;;18.93;54.81
38227;BME280;24026;49.446;8.576;2023-05-21T05:29:00;100131.84;;;18.96;55.03
38227;BME280;24026;49.446;8.576;2023-05-21T05:31:20;100133.94;;;18.99;54.82
38227;BME280;24026;49.446;8.576;2023-05-21T05:33:41;100132.66;;;18.96;54.83
38227;BME280;24026;49.446;8.576;2023-05-21T05:36:01;100131.53;;;18.97;54.87
38227;BME280;24026;49.446;8.576;2023-05-21T05:38:21;100128.06;;;18.97;54.74
38227;BME280;24026;49.446;8.576;2023-05-21T05:40:42;100127.44;;;19.00;54.94
38227;BME280;24026;49.446;8.576;2023-05-21T05:43:02;100131.22;;;18.99;54.97
38227;BME280;24026;49.446;8.576;2023-05-21T05:45:23;100132.03;;;18.99;54.77
38227;BME280;24026;49.446;8.576;2023-05-21T05:47:44;100126.56;;;19.04;54.95
38227;BME280;24026;49.446;8.576;2023-05-21T05:50:05;100132.25;;;19.03;54.59
38227;BME280;24026;49.446;8.576;2023-05-21T05:52:26;100138.91;;;19.05;54.44
38227;BME280;24026;49.446;8.576;2023-05-21T05:54:46;100131.00;;;19.09;54.03
38227;BME280;24026;49.446;8.576;2023-05-21T05:57:06;100134.00;;;19.07;54.75
38227;BME280;24026;49.446;8.576;2023-05-21T05:59:27;100141.28;;;19.07;54.54
38227;BME280;24026;49.446;8.576;2023-05-21T06:01:47;100137.38;;;19.13;54.55
38227;BME280;24026;49.446;8.576;2023-05-21T06:04:07;100141.78;;;19.09;54.63
38227;BME280;24026;49.446;8.576;2023-05-21T06:06:28;100137.69;;;19.12;54.32
38227;BME280;24026;49.446;8.576;2023-05-21T06:08:48;100147.16;;;19.09;54.39
38227;BME280;24026;49.446;8.576;2023-05-21T06:11:08;100142.28;;;19.11;54.37
38227;BME280;24026;49.446;8.576;2023-05-21T06:13:30;100137.69;;;19.12;54.46
38227;BME280;24026;49.446;8.576;2023-05-21T06:15:52;100145.16;;;19.15;54.13
38227;BME280;24026;49.446;8.576;2023-05-21T06:18:12;100143.25;;;19.15;54.22
38227;BME280;24026;49.446;8.576;2023-05-21T06:20:32;100148.16;;;19.13;54.08
38227;BME280;24026;49.446;8.576;2023-05-21T06:22:53;100150.25;;;19.16;54.46
38227;BME280;24026;49.446;8.576;2023-05-21T06:25:13;100144.84;;;19.16;54.61
38227;BME280;24026;49.446;8.576;2023-05-21T06:27:36;100144.34;;;19.14;54.51
38227;BME280;24026;49.446;8.576;2023-05-21T06:29:57;100145.84;;;19.20;54.37
38227;BME280;24026;49.446;8.576;2023-05-21T06:32:17;100151.09;;;19.25;54.28
38227;BME280;24026;49.446;8.576;2023-05-21T06:34:38;100147.13;;;19.23;54.10
38227;BME280;24026;49.446;8.576;2023-05-21T06:36:58;100152.53;;;19.23;54.35
38227;BME280;24026;49.446;8.576;2023-05-21T06:39:18;100145.22;;;19.23;53.94
38227;BME280;24026;49.446;8.576;2023-05-21T06:41:39;100143.50;;;19.28;54.29
38227;BME280;24026;49.446;8.576;2023-05-21T06:43:59;100149.53;;;19.24;54.39
38227;BME280;24026;49.446;8.576;2023-05-21T06:46:20;100151.59;;;19.28;54.29
38227;BME280;24026;49.446;8.576;2023-05-21T06:48:40;100144.69;;;19.35;54.22
38227;BME280;24026;49.446;8.576;2023-05-21T06:51:00;100149.94;;;19.40;53.93
38227;BME280;24026;49.446;8.576;2023-05-21T06:53:21;100152.22;;;19.47;53.88
38227;BME280;24026;49.446;8.576;2023-05-21T06:55:41;100145.91;;;19.52;53.64
38227;BME280;24026;49.446;8.576;2023-05-21T06:58:04;100153.25;;;19.60;53.75
38227;BME280;24026;49.446;8.576;2023-05-21T07:00:25;100148.81;;;19.64;53.46
38227;BME280;24026;49.446;8.576;2023-05-21T07:02:45;100152.50;;;19.68;53.08
38227;BME280;24026;49.446;8.576;2023-05-21T07:05:06;100159.88;;;19.76;53.17
38227;BME280;24026;49.446;8.576;2023-05-21T07:07:27;100154.06;;;19.83;52.66
38227;BME280;24026;49.446;8.576;2023-05-21T07:09:47;100150.41;;;19.88;52.86
38227;BME280;24026;49.446;8.576;2023-05-21T07:12:07;100157.88;;;19.91;52.88
38227;BME280;24026;49.446;8.576;2023-05-21T07:14:28;100150.78;;;19.95;52.58
38227;BME280;24026;49.446;8.576;2023-05-21T07:16:48;100149.97;;;19.94;52.85
38227;BME280;24026;49.446;8.576;2023-05-21T07:19:09;100153.19;;;19.96;52.77
38227;BME280;24026;49.446;8.576;2023-05-21T07:21:29;100151.25;;;19.97;52.93
38227;BME280;24026;49.446;8.576;2023-05-21T07:23:49;100159.03;;;19.98;53.04
38227;BME280;24026;49.446;8.576;2023-05-21T07:26:10;100161.91;;;20.02;52.57
38227;BME280;24026;49.446;8.576;2023-05-21T07:28:30;100162.69;;;20.03;52.51
38227;BME280;24026;49.446;8.576;2023-05-21T07:30:51;100157.00;;;20.04;52.72
38227;BME280;24026;49.446;8.576;2023-05-21T07:33:11;100155.28;;;20.08;52.74
38227;BME280;24026;49.446;8.576;2023-05-21T07:35:31;100162.25;;;20.09;52.75
38227;BME280;24026;49.446;8.576;2023-05-21T07:37:52;100157.38;;;20.11;52.48
38227;BME280;24026;49.446;8.576;2023-05-21T07:40:12;100154.34;;;20.13;52.65
38227;BME280;24026;49.446;8.576;2023-05-21T07:42:33;100154.84;;;20.15;52.31
38227;BME280;24026;49.446;8.576;2023-05-21T07:44:54;100151.53;;;20.18;52.18
38227;BME280;24026;49.446;8.576;2023-05-21T07:47:14;100153.09;;;20.19;52.52
38227;BME280;24026;49.446;8.576;2023-05-21T07:49:35;100149.78;;;20.22;52.54
38227;BME280;24026;49.446;8.576;2023-05-21T07:51:55;100152.97;;;20.24;52.12
38227;BME280;24026;49.446;8.576;2023-05-21T07:54:16;100151.84;;;20.25;52.07
38227;BME280;24026;49.446;8.576;2023-05-21T07:56:36;100153.63;;;20.30;52.19
38227;BME280;24026;49.446;8.576;2023-05-21T07:58:56;100144.41;;;20.31;52.01
38227;BME280;24026;49.446;8.576;2023-05-21T08:01:17;100148.41;;;20.33;52.09
38227;BME280;24026;49.446;8.576;2023-05-21T08:03:37;100150.78;;;20.35;52.21
38227;BME280;24026;49.446;8.576;2023-05-21T08:05:57;100150.16;;;20.38;51.79
38227;BME280;24026;49.446;8.576;2023-05-21T08:08:19;100148.72;;;20.41;51.88
38227;BME280;24026;49.446;8.576;2023-05-21T08:10:41;100143.50;;;20.44;52.17
38227;BME280;24026;49.446;8.576;2023-05-21T08:13:01;100140.50;;;20.46;51.78
38227;BME280;24026;49.446;8.576;2023-05-21T08:15:22;100143.66;;;20.48;51.48
38227;BME280;24026;49.446;8.576;2023-05-21T08:17:42;100144.94;;;20.50;51.56
38227;BME280;24026;49.446;8.576;2023-05-21T08:20:03;100144.63;;;20.52;51.87
38227;BME280;24026;49.446;8.576;2023-05-21T08:22:23;100144.00;;;20.55;51.54
38227;BME280;24026;49.446;8.576;2023-05-21T08:24:44;100143.69;;;20.57;51.50
38227;BME280;24026;49.446;8.576;2023-05-21T08:27:04;100143.38;;;20.58;51.29
38227;BME280;24026;49.446;8.576;2023-05-21T08:29:24;100136.56;;;20.61;51.53
38227;BME280;24026;49.446;8.576;2023-05-21T08:31:45;100137.88;;;20.63;51.48
38227;BME280;24026;49.446;8.576;2023-05-21T08:34:05;100144.53;;;20.66;51.62
38227;BME280;24026;49.446;8.576;2023-05-21T08:36:25;100142.31;;;20.68;51.20
38227;BME280;24026;49.446;8.576;2023-05-21T08:38:46;100142.00;;;20.69;51.47
38227;BME280;24026;49.446;8.576;2023-05-21T08:41:07;100132.47;;;20.72;51.38
38227;BME280;24026;49.446;8.576;2023-05-21T08:43:28;100135.66;;;20.74;51.08
38227;BME280;24026;49.446;8.576;2023-05-21T08:45:52;100135.34;;;20.76;51.25
38227;BME280;24026;49.446;8.576;2023-05-21T08:48:18;100138.19;;;20.79;51.03
38227;BME280;24026;49.446;8.576;2023-05-21T08:50:40;100131.69;;;20.80;50.98
38227;BME280;24026;49.446;8.576;2023-05-21T08:53:01;100126.44;;;20.84;51.11
38227;BME280;24026;49.446;8.576;2023-05-21T08:55:21;100129.94;;;20.84;50.82
38227;BME280;24026;49.446;8.576;2023-05-21T08:57:43;100129.00;;;20.89;50.80
38227;BME280;24026;49.446;8.576;2023-05-21T09:00:04;100124.38;;;20.89;50.83
38227;BME280;24026;49.446;8.576;2023-05-21T09:02:27;100137.25;;;20.92;50.66
38227;BME280;24026;49.446;8.576;2023-05-21T09:04:52;100130.75;;;20.94;50.74
38227;BME280;24026;49.446;8.576;2023-05-21T09:07:16;100132.00;;;20.96;50.82
38227;BME280;24026;49.446;8.576;2023-05-21T09:09:49;100130.75;;;20.94;50.86
38227;BME280;24026;49.446;8.576;2023-05-21T09:12:13;100137.09;;;20.98;50.51
38227;BME280;24026;49.446;8.576;2023-05-21T09:14:34;100139.16;;;21.01;50.85
38227;BME280;24026;49.446;8.576;2023-05-21T09:16:54;100135.84;;;21.04;50.44
38227;BME280;24026;49.446;8.576;2023-05-21T09:19:15;100133.59;;;21.06;50.35
38227;BME280;24026;49.446;8.576;2023-05-21T09:21:37;100137.59;;;21.08;50.67
38227;BME280;24026;49.446;8.576;2023-05-21T09:23:59;100134.22;;;21.12;50.59
38227;BME280;24026;49.446;8.576;2023-05-21T09:26:21;100134.72;;;21.14;50.19
38227;BME280;24026;49.446;8.576;2023-05-21T09:28:42;100134.09;;;21.17;50.21
38227;BME280;24026;49.446;8.576;2023-05-21T09:31:02;100134.88;;;21.17;50.58
38227;BME280;24026;49.446;8.576;2023-05-21T09:33:27;100135.34;;;21.19;50.20
38227;BME280;24026;49.446;8.576;2023-05-21T09:35:49;100136.63;;;21.22;50.25
38227;BME280;24026;49.446;8.576;2023-05-21T09:38:09;100127.06;;;21.24;50.00
38227;BME280;24026;49.446;8.576;2023-05-21T09:40:30;100139.50;;;21.25;50.20
38227;BME280;24026;49.446;8.576;2023-05-21T09:42:52;100128.03;;;21.28;50.03
38227;BME280;24026;49.446;8.576;2023-05-21T09:45:19;100128.03;;;21.28;50.01
38227;BME280;24026;49.446;8.576;2023-05-21T09:47:41;100133.28;;;21.34;49.97
38227;BME280;24026;49.446;8.576;2023-05-21T09:50:05;100129.44;;;21.35;49.93
38227;BME280;24026;49.446;8.576;2023-05-21T09:52:26;100123.72;;;21.36;49.93
38227;BME280;24026;49.446;8.576;2023-05-21T09:54:47;100122.31;;;21.39;49.64
38227;BME280;24026;49.446;8.576;2023-05-21T09:57:07;100122.78;;;21.41;49.84
38227;BME280;24026;49.446;8.576;2023-05-21T09:59:37;100118.47;;;21.40;49.79
38227;BME280;24026;49.446;8.576;2023-05-21T10:01:58;100121.81;;;21.45;49.38
38227;BME280;24026;49.446;8.576;2023-05-21T10:04:18;100114.22;;;21.48;49.56
38227;BME280;24026;49.446;8.576;2023-05-21T10:06:42;100117.84;;;21.52;49.59
38227;BME280;24026;49.446;8.576;2023-05-21T10:09:06;100124.06;;;21.52;49.43
38227;BME280;24026;49.446;8.576;2023-05-21T10:11:30;100116.88;;;21.56;49.58
38227;BME280;24026;49.446;8.576;2023-05-21T10:13:56;100112.59;;;21.55;49.58
38227;BME280;24026;49.446;8.576;2023-05-21T10:16:17;100122.13;;;21.61;49.19
38227;BME280;24026;49.446;8.576;2023-05-21T10:18:39;100119.09;;;21.63;49.09
38227;BME280;24026;49.446;8.576;2023-05-21T10:21:01;100114.16;;;21.65;49.14
38227;BME280;24026;49.446;8.576;2023-05-21T10:23:23;100113.81;;;21.67;49.08
38227;BME280;24026;49.446;8.576;2023-05-21T10:25:44;100113.19;;;21.70;49.33
38227;BME280;24026;49.446;8.576;2023-05-21T10:28:05;100104.75;;;21.71;49.06
38227;BME280;24026;49.446;8.576;2023-05-21T10:30:26;100106.03;;;21.74;49.18
38227;BME280;24026;49.446;8.576;2023-05-21T10:32:47;100107.28;;;21.76;49.22
38227;BME280;24026;49.446;8.576;2023-05-21T10:35:08;100108.88;;;21.77;49.12
38227;BME280;24026;49.446;8.576;2023-05-21T10:37:30;100110.13;;;21.80;49.17
38227;BME280;24026;49.446;8.576;2023-05-21T10:39:51;100110.63;;;21.82;49.24
38227;BME280;24026;49.446;8.576;2023-05-21T10:53:49;100097.69;;;21.88;49.00
38227;BME280;24026;49.446;8.576;2023-05-21T10:58:50;100098.94;;;21.99;48.67
38227;BME280;24026;49.446;8.576;2023-05-21T11:01:14;100103.38;;;22.04;48.80
38227;BME280;24026;49.446;8.576;2023-05-21T11:03:35;100090.00;;;22.07;48.69
38227;BME280;24026;49.446;8.576;2023-05-21T11:05:56;100086.97;;;22.09;48.68
38227;BME280;24026;49.446;8.576;2023-05-21T11:08:22;100086.63;;;22.10;48.45
38227;BME280;24026;49.446;8.576;2023-05-21T11:10:42;100087.09;;;22.12;48.58
38227;BME280;24026;49.446;8.576;2023-05-21T11:13:07;100082.59;;;22.16;48.56
38227;BME280;24026;49.446;8.576;2023-05-21T11:15:27;100081.16;;;22.19;48.28
38227;BME280;24026;49.446;8.576;2023-05-21T11:17:48;100081.31;;;22.23;48.43
38227;BME280;24026;49.446;8.576;2023-05-21T11:20:11;100074.44;;;22.25;48.19
38227;BME280;24026;49.446;8.576;2023-05-21T11:22:34;100074.63;;;22.29;48.27
38227;BME280;24026;49.446;8.576;2023-05-21T11:25:00;100075.06;;;22.31;48.02
38227;BME280;24026;49.446;8.576;2023-05-21T11:27:40;100066.31;;;22.25;48.18
38227;BME280;24026;49.446;8.576;2023-05-21T11:30:15;100075.06;;;22.31;48.25
38227;BME280;24026;49.446;8.576;2023-05-21T11:32:37;100070.72;;;22.38;48.15
38227;BME280;24026;49.446;8.576;2023-05-21T11:35:01;100075.47;;;22.42;48.25
38227;BME280;24026;49.446;8.576;2023-05-21T11:37:22;100066.69;;;22.45;47.99
38227;BME280;24026;49.446;8.576;2023-05-21T11:39:44;100069.53;;;22.48;47.74
38227;BME280;24026;49.446;8.576;2023-05-21T11:42:04;100061.91;;;22.50;47.80
38227;BME280;24026;49.446;8.576;2023-05-21T11:44:44;100070.81;;;22.51;47.92
38227;BME280;24026;49.446;8.576;2023-05-21T11:47:05;100067.56;;;22.57;47.97
38227;BME280;24026;49.446;8.576;2023-05-21T11:49:26;100063.41;;;22.60;47.87
38227;BME280;24026;49.446;8.576;2023-05-21T11:51:47;100061.19;;;22.62;47.80
38227;BME280;24026;49.446;8.576;2023-05-21T11:54:09;100067.50;;;22.66;47.83
38227;BME280;24026;49.446;8.576;2023-05-21T11:56:29;100062.53;;;22.68;47.57
38227;BME280;24026;49.446;8.576;2023-05-21T11:58:53;100060.78;;;22.72;47.54
38227;BME280;24026;49.446;8.576;2023-05-21T12:01:23;100064.59;;;22.71;47.60
38227;BME280;24026;49.446;8.576;2023-05-21T12:03:44;100061.69;;;22.76;47.51
38227;BME280;24026;49.446;8.576;2023-05-21T12:06:04;100053.69;;;22.80;47.59
38227;BME280;24026;49.446;8.576;2023-05-21T12:08:25;100058.78;;;22.82;47.40
38227;BME280;24026;49.446;8.576;2023-05-21T12:10:46;100053.84;;;22.84;47.41
38227;BME280;24026;49.446;8.576;2023-05-21T12:13:06;100055.06;;;22.86;47.42
38227;BME280;24026;49.446;8.576;2023-05-21T12:15:27;100053.63;;;22.89;47.30
38227;BME280;24026;49.446;8.576;2023-05-21T12:17:49;100054.88;;;22.91;47.19
38227;BME280;24026;49.446;8.576;2023-05-21T12:20:13;100045.75;;;22.96;47.27
38227;BME280;24026;49.446;8.576;2023-05-21T12:22:34;100048.91;;;22.98;47.11
38227;BME280;24026;49.446;8.576;2023-05-21T12:24:55;100046.00;;;23.03;47.25
38227;BME280;24026;49.446;8.576;2023-05-21T12:27:17;100043.44;;;23.07;47.03
38227;BME280;24026;49.446;8.576;2023-05-21T12:29:40;100043.59;;;23.10;47.09
38227;BME280;24026;49.446;8.576;2023-05-21T12:32:02;100049.78;;;23.11;46.91
38227;BME280;24026;49.446;8.576;2023-05-21T12:34:40;100044.09;;;23.04;47.09